createdAt,value
2019-01-17T00:01:19.683Z,97562.36
2019-01-17T00:04:14.733Z,97569.70
2019-01-17T00:06:55.013Z,97576.20
2019-01-17T00:09:35.480Z,97582.77
2019-01-17T00:12:13.637Z,97570.41
2019-01-17T00:15:02.245Z,97572.08
2019-01-17T00:17:59.538Z,97581.50
2019-01-17T00:20:50.630Z,97581.79
2019-01-17T00:23:41.575Z,97588.00
2019-01-17T00:26:29.051Z,97596.69
2019-01-17T00:29:17.347Z,97586.75
2019-01-17T00:32:24.157Z,97591.84
2019-01-17T00:35:12.473Z,97586.06
2019-01-17T00:37:55.916Z,97579.63
2019-01-17T00:40:44.363Z,97577.59
2019-01-17T00:43:35.742Z,97567.99
2019-01-17T00:46:30.257Z,97574.64
2019-01-17T00:49:07.824Z,97571.53
2019-01-17T00:52:05.393Z,97569.36
2019-01-17T00:54:56.781Z,97560.68
2019-01-17T00:57:38.249Z,97562.25
2019-01-17T01:00:27.485Z,97570.01
2019-01-17T01:03:14.466Z,97568.66
2019-01-17T01:06:01.786Z,97560.81
2019-01-17T01:08:49.030Z,97559.89
2019-01-17T01:11:43.434Z,97569.31
2019-01-17T01:14:43.908Z,97563.33
2019-01-17T01:17:31.011Z,97566.22
2019-01-17T01:20:34.456Z,97570.25
2019-01-17T01:23:25.719Z,97571.83
2019-01-17T01:26:23.101Z,97573.17
2019-01-17T01:29:17.642Z,97582.88
2019-01-17T01:32:08.809Z,97586.63
2019-01-17T01:35:01.301Z,97594.38
2019-01-17T01:37:48.972Z,97590.34
2019-01-17T01:40:37.303Z,97599.45
2019-01-17T01:43:34.647Z,97609.93
2019-01-17T01:46:32.312Z,97612.11
2019-01-17T01:49:38.891Z,97622.64
2019-01-17T01:52:25.497Z,97626.08
2019-01-17T01:54:54.855Z,97631.36
2019-01-17T01:57:24.232Z,97643.98
2019-01-17T01:59:53.634Z,97647.19
2019-01-17T02:02:23.019Z,97651.23
2019-01-17T02:04:52.366Z,97650.94
2019-01-17T02:07:21.820Z,97650.94
2019-01-17T02:09:51.187Z,97657.67
2019-01-17T02:12:20.571Z,97658.19
2019-01-17T02:14:49.991Z,97667.60
2019-01-17T02:17:19.923Z,97675.35
2019-01-17T02:19:49.283Z,97676.19
2019-01-17T02:22:18.653Z,97673.49
2019-01-17T02:24:48.054Z,97668.11
2019-01-17T02:27:17.447Z,97669.97
2019-01-17T02:29:46.911Z,97680.45
2019-01-17T02:32:16.288Z,97680.64
2019-01-17T02:34:45.702Z,97691.92
2019-01-17T02:37:15.074Z,97700.53
2019-01-17T02:39:44.425Z,97701.23
2019-01-17T02:42:13.893Z,97702.58
2019-01-17T02:44:43.339Z,97707.45
2019-01-17T02:47:12.730Z,97703.93
2019-01-17T02:49:42.097Z,97707.87
2019-01-17T02:52:11.510Z,97714.30
2019-01-17T02:54:40.871Z,97723.18
2019-01-17T02:57:10.244Z,97738.30
2019-01-17T02:59:39.626Z,97744.84
2019-01-17T03:02:09.090Z,97739.74
2019-01-17T03:04:38.462Z,97736.31
2019-01-17T03:07:07.858Z,97738.72
2019-01-17T03:09:37.275Z,97755.89
2019-01-17T03:12:06.675Z,97753.61
2019-01-17T03:14:36.021Z,97752.08
2019-01-17T03:17:05.534Z,97753.93
2019-01-17T03:19:34.885Z,97744.70
2019-01-17T03:22:04.275Z,97739.77
2019-01-17T03:24:33.659Z,97736.53
2019-01-17T03:27:03.029Z,97743.17
2019-01-17T03:29:32.389Z,97736.54
2019-01-17T03:32:01.843Z,97738.40
2019-01-17T03:34:31.156Z,97736.54
2019-01-17T03:37:00.637Z,97732.73
2019-01-17T03:39:30.003Z,97734.88
2019-01-17T03:41:59.413Z,97743.91
2019-01-17T03:44:28.781Z,97744.93
2019-01-17T03:46:58.161Z,97750.82
2019-01-17T03:49:27.613Z,97745.15
2019-01-17T03:51:56.925Z,97747.30
2019-01-17T03:54:26.267Z,97745.85
2019-01-17T03:56:55.706Z,97745.05
2019-01-17T03:59:25.070Z,97746.39
2019-01-17T04:01:54.460Z,97741.20
2019-01-17T04:04:23.836Z,97748.98
2019-01-17T04:06:53.175Z,97743.28
2019-01-17T04:09:22.567Z,97742.95
2019-01-17T04:11:51.932Z,97736.55
2019-01-17T04:14:21.357Z,97739.98
2019-01-17T04:16:50.709Z,97745.55
2019-01-17T04:19:20.150Z,97738.53
2019-01-17T04:21:49.491Z,97748.14
2019-01-17T04:24:18.919Z,97750.53
2019-01-17T04:26:48.349Z,97751.05
2019-01-17T04:29:17.695Z,97751.56
2019-01-17T04:31:47.071Z,97762.83
2019-01-17T04:34:16.484Z,97756.43
2019-01-17T04:36:45.856Z,97757.45
2019-01-17T04:39:15.228Z,97757.45
2019-01-17T04:41:44.601Z,97763.89
2019-01-17T04:44:14.044Z,97762.19
2019-01-17T04:46:43.412Z,97764.05
2019-01-17T04:49:12.830Z,97771.28
2019-01-17T04:51:42.269Z,97772.62
2019-01-17T04:54:11.601Z,97772.33
2019-01-17T04:56:41.002Z,97768.81
2019-01-17T04:59:10.360Z,97763.94
2019-01-17T05:01:39.701Z,97767.97
2019-01-17T05:04:09.095Z,97769.83
2019-01-17T05:06:38.498Z,97774.92
2019-01-17T05:09:08.875Z,97777.10
2019-01-17T05:11:38.301Z,97783.50
2019-01-17T05:14:07.632Z,97771.72
2019-01-17T05:16:37.075Z,97765.19
2019-01-17T05:19:06.472Z,97769.73
2019-01-17T05:21:35.818Z,97766.75
2019-01-17T05:24:05.579Z,97763.00
2019-01-17T05:26:34.980Z,97773.98
2019-01-17T05:29:04.414Z,97774.81
2019-01-17T05:31:33.752Z,97778.53
2019-01-17T05:34:03.245Z,97776.86
2019-01-17T05:36:32.606Z,97787.11
2019-01-17T05:39:01.980Z,97777.08
2019-01-17T05:41:31.405Z,97766.32
2019-01-17T05:44:00.795Z,97772.02
2019-01-17T05:46:30.200Z,97775.22
2019-01-17T05:48:59.600Z,97773.05
2019-01-17T05:51:28.971Z,97777.08
2019-01-17T05:53:58.327Z,97787.84
2019-01-17T05:56:27.713Z,97787.33
2019-01-17T05:58:57.109Z,97793.22
2019-01-17T06:01:27.405Z,97791.04
2019-01-17T06:03:56.824Z,97791.04
2019-01-17T06:06:26.209Z,97786.49
2019-01-17T06:08:55.601Z,97796.02
2019-01-17T06:11:24.985Z,97797.87
2019-01-17T06:13:54.393Z,97797.97
2019-01-17T06:16:23.841Z,97805.34
2019-01-17T06:18:53.253Z,97821.05
2019-01-17T06:21:22.647Z,97826.75
2019-01-17T06:23:52.027Z,97828.09
2019-01-17T06:26:21.435Z,97828.95
2019-01-17T06:28:50.833Z,97835.47
2019-01-17T06:31:20.343Z,97833.61
2019-01-17T06:33:50.277Z,97839.83
2019-01-17T06:36:19.677Z,97849.53
2019-01-17T06:38:49.028Z,97848.19
2019-01-17T06:41:18.588Z,97846.84
2019-01-17T06:43:47.967Z,97846.33
2019-01-17T06:46:17.409Z,97849.02
2019-01-17T06:48:46.849Z,97858.25
2019-01-17T06:51:16.179Z,97863.92
2019-01-17T06:53:45.530Z,97861.34
2019-01-17T06:56:14.949Z,97864.86
2019-01-17T06:58:44.292Z,97859.48
2019-01-17T07:01:13.675Z,97862.39
2019-01-17T07:03:43.114Z,97871.48
2019-01-17T07:06:12.507Z,97880.06
2019-01-17T07:08:41.965Z,97894.86
2019-01-17T07:11:11.316Z,97906.16
2019-01-17T07:13:40.708Z,97921.66
2019-01-17T07:16:10.051Z,97955.29
2019-01-17T07:18:39.473Z,97959.03
2019-01-17T07:21:08.877Z,97966.78
2019-01-17T07:23:38.209Z,97969.69
2019-01-17T07:26:07.577Z,97973.36
2019-01-17T07:28:36.924Z,97974.70
2019-01-17T07:31:06.357Z,97984.13
2019-01-17T07:33:35.894Z,97994.55
2019-01-17T07:36:05.327Z,97988.55
2019-01-17T07:38:34.717Z,97997.46
2019-01-17T07:41:46.039Z,97999.02
2019-01-17T07:44:15.402Z,97999.82
2019-01-17T07:46:44.898Z,97994.98
2019-01-17T07:49:14.318Z,98009.45
2019-01-17T07:51:43.738Z,98013.16
2019-01-17T07:54:13.116Z,98009.67
2019-01-17T07:56:42.590Z,98018.03
2019-01-17T07:59:11.978Z,98022.91
2019-01-17T08:01:41.386Z,98030.97
2019-01-17T08:04:10.790Z,98040.72
2019-01-17T08:06:40.234Z,98038.83
2019-01-17T08:09:10.582Z,98045.05
2019-01-17T08:11:39.972Z,98052.28
2019-01-17T08:14:09.407Z,98069.77
2019-01-17T08:16:38.798Z,98086.74
2019-01-17T08:19:08.210Z,98088.59
2019-01-17T08:21:37.639Z,98095.32
2019-01-17T08:24:06.974Z,98104.73
2019-01-17T08:26:36.350Z,98103.39
2019-01-17T08:29:05.820Z,98105.27
2019-01-17T08:31:35.275Z,98099.90
2019-01-17T08:34:04.634Z,98102.59
2019-01-17T08:36:34.090Z,98106.29
2019-01-17T08:39:04.847Z,98102.77
2019-01-17T08:41:34.222Z,98112.18
2019-01-17T08:44:03.718Z,98117.27
2019-01-17T08:46:33.174Z,98117.56
2019-01-17T08:49:03.497Z,98127.48
2019-01-17T08:51:32.924Z,98127.70
2019-01-17T08:54:02.342Z,98135.77
2019-01-17T08:56:31.703Z,98140.31
2019-01-17T08:59:01.183Z,98147.03
2019-01-17T09:01:30.570Z,98155.61
2019-01-17T09:03:59.977Z,98169.89
2019-01-17T09:06:29.420Z,98170.11
2019-01-17T09:08:58.810Z,98177.34
2019-01-17T09:11:28.164Z,98182.39
2019-01-17T09:13:57.603Z,98187.98
2019-01-17T09:16:26.950Z,98194.37
2019-01-17T09:18:56.288Z,98200.98
2019-01-17T09:21:25.770Z,98199.63
2019-01-17T09:23:55.117Z,98210.59
2019-01-17T09:26:24.470Z,98215.14
2019-01-17T09:28:53.872Z,98217.50
2019-01-17T09:31:23.229Z,98223.92
2019-01-17T09:34:22.825Z,98232.17
2019-01-17T09:36:52.166Z,98241.08
2019-01-17T09:39:21.573Z,98248.52
2019-01-17T09:41:51.305Z,98249.86
2019-01-17T09:44:20.720Z,98253.89
2019-01-17T09:46:50.091Z,98257.42
2019-01-17T09:49:19.486Z,98254.73
2019-01-17T09:51:48.922Z,98259.61
2019-01-17T09:54:18.276Z,98259.91
2019-01-17T09:56:47.643Z,98266.33
2019-01-17T09:59:17.046Z,98273.05
2019-01-17T10:01:47.234Z,98276.55
2019-01-17T10:04:16.992Z,98268.48
2019-01-17T10:06:46.337Z,98277.89
2019-01-17T10:09:15.772Z,98284.95
2019-01-17T10:11:45.229Z,98284.44
2019-01-17T10:14:14.568Z,98291.67
2019-01-17T10:17:01.381Z,98294.69
2019-01-17T10:20:15.933Z,98292.81
2019-01-17T10:23:21.229Z,98293.65
2019-01-17T10:26:37.309Z,98292.00
2019-01-17T10:29:43.692Z,98306.47
2019-01-17T10:32:29.803Z,98316.72
2019-01-17T10:35:49.251Z,98322.94
2019-01-17T10:38:52.102Z,98319.70
2019-01-17T10:41:44.306Z,98327.60
2019-01-17T10:44:41.683Z,98337.31
2019-01-17T10:48:01.342Z,98347.27
2019-01-17T10:51:13.847Z,98362.70
2019-01-17T10:54:06.875Z,98365.18
2019-01-17T10:56:59.532Z,98372.74
2019-01-17T10:59:48.965Z,98378.96
2019-01-17T11:02:43.059Z,98388.80
2019-01-17T11:05:45.514Z,98389.47
2019-01-17T11:08:58.652Z,98398.68
2019-01-17T11:12:05.480Z,98410.08
2019-01-17T11:15:24.585Z,98423.53
2019-01-17T11:18:46.680Z,98430.59
2019-01-17T11:21:38.779Z,98442.49
2019-01-17T11:25:03.611Z,98445.18
2019-01-17T11:28:29.042Z,98453.59
2019-01-17T11:31:35.405Z,98450.26
2019-01-17T11:34:53.287Z,98472.42
2019-01-17T11:38:09.590Z,98471.28
2019-01-17T11:41:04.769Z,98480.49
2019-01-17T11:44:17.436Z,98486.24
2019-01-17T11:47:17.533Z,98495.66
2019-01-17T11:50:17.623Z,98494.61
2019-01-17T11:53:26.259Z,98486.55
2019-01-17T11:56:13.129Z,98495.96
2019-01-17T11:59:15.104Z,98498.14
2019-01-17T12:01:58.493Z,98499.28
2019-01-17T12:04:33.045Z,98508.20
2019-01-17T12:07:05.202Z,98511.22
2019-01-17T12:09:34.628Z,98508.03
2019-01-17T12:12:04.415Z,98502.64
2019-01-17T12:14:33.828Z,98510.02
2019-01-17T12:17:03.292Z,98528.34
2019-01-17T12:19:32.715Z,98538.91
2019-01-17T12:22:02.079Z,98536.72
2019-01-17T12:24:31.475Z,98534.86
2019-01-17T12:27:00.925Z,98526.09
2019-01-17T12:29:30.302Z,98533.66
2019-01-17T12:31:59.680Z,98555.02
2019-01-17T12:34:29.105Z,98558.00
2019-01-17T12:36:58.549Z,98566.41
2019-01-17T12:39:27.914Z,98568.06
2019-01-17T12:41:57.340Z,98575.13
2019-01-17T12:44:26.751Z,98576.47
2019-01-17T12:46:56.128Z,98596.28
2019-01-17T12:49:25.641Z,98579.43
2019-01-17T12:51:55.052Z,98590.84
2019-01-17T12:54:24.439Z,98596.22
2019-01-17T12:56:54.308Z,98598.09
2019-01-17T12:59:23.825Z,98598.41
2019-01-17T13:01:53.292Z,98617.75
2019-01-17T13:04:22.715Z,98622.13
2019-01-17T13:06:52.133Z,98625.83
2019-01-17T13:09:21.486Z,98632.55
2019-01-17T13:11:50.915Z,98635.95
2019-01-17T13:14:21.180Z,98642.38
2019-01-17T13:16:50.665Z,98641.03
2019-01-17T13:19:20.083Z,98665.09
2019-01-17T13:21:49.513Z,98661.59
2019-01-17T13:24:18.955Z,98655.37
2019-01-17T13:26:48.364Z,98668.48
2019-01-17T13:29:17.746Z,98669.19
2019-01-17T13:31:47.234Z,98678.61
2019-01-17T13:34:16.707Z,98685.84
2019-01-17T13:36:46.138Z,98691.56
2019-01-17T13:39:15.537Z,98685.00
2019-01-17T13:41:45.099Z,98701.69
2019-01-17T13:44:14.509Z,98710.77
2019-01-17T13:46:44.057Z,98712.11
2019-01-17T13:49:14.467Z,98722.04
2019-01-17T13:51:43.978Z,98726.08
2019-01-17T13:54:13.405Z,98732.80
2019-01-17T13:56:43.275Z,98727.92
2019-01-17T13:59:12.736Z,98739.03
2019-01-17T14:01:42.333Z,98752.15
2019-01-17T14:04:12.003Z,98757.53
2019-01-17T14:06:41.535Z,98771.52
2019-01-17T14:09:10.993Z,98770.17
2019-01-17T14:11:40.406Z,98779.06
2019-01-17T14:14:09.822Z,98787.13
2019-01-17T14:16:39.380Z,98794.56
2019-01-17T14:19:08.811Z,98804.48
2019-01-17T14:21:38.230Z,98808.52
2019-01-17T14:24:07.681Z,98805.19
2019-01-17T14:26:37.048Z,98811.60
2019-01-17T14:29:06.621Z,98820.84
2019-01-17T14:31:36.067Z,98832.80
2019-01-17T14:34:05.584Z,98839.38
2019-01-17T14:36:34.937Z,98848.65
2019-01-17T14:39:05.869Z,98846.27
2019-01-17T14:41:35.256Z,98855.69
2019-01-17T14:44:05.703Z,98858.91
2019-01-17T14:46:35.283Z,98875.69
2019-01-17T14:49:04.683Z,98876.41
2019-01-17T14:51:34.246Z,98885.44
2019-01-17T14:54:03.628Z,98890.31
2019-01-17T14:56:33.010Z,98897.72
2019-01-17T14:59:02.413Z,98898.22
2019-01-17T15:01:31.823Z,98894.04
2019-01-17T15:04:01.188Z,98902.11
2019-01-17T15:06:30.647Z,98906.50
2019-01-17T15:09:00.034Z,98905.48
2019-01-17T15:11:29.442Z,98922.62
2019-01-17T15:13:58.882Z,98926.02
2019-01-17T15:16:28.378Z,98925.70
2019-01-17T15:18:57.943Z,98926.37
2019-01-17T15:21:27.475Z,98931.44
2019-01-17T15:23:56.933Z,98937.32
2019-01-17T15:26:26.394Z,98940.66
2019-01-17T15:28:55.787Z,98949.58
2019-01-17T15:31:25.218Z,98942.85
2019-01-17T15:33:54.773Z,98948.73
2019-01-17T15:36:24.187Z,98954.96
2019-01-17T15:38:55.087Z,98948.73
2019-01-17T15:41:28.471Z,98956.80
2019-01-17T15:43:55.693Z,98964.53
2019-01-17T15:46:25.113Z,98975.83
2019-01-17T15:48:54.514Z,98981.21
2019-01-17T15:51:23.971Z,98984.22
2019-01-17T15:53:53.347Z,98990.09
2019-01-17T15:56:22.710Z,98998.70
2019-01-17T15:58:52.156Z,99003.73
2019-01-17T16:06:17.967Z,99020.58
2019-01-17T16:13:43.658Z,99030.15
2019-01-17T16:16:13.080Z,99033.37
2019-01-17T16:18:42.478Z,99048.33
2019-01-17T16:21:11.873Z,99049.86
2019-01-17T16:23:41.330Z,99051.36
2019-01-17T16:26:10.707Z,99055.93
2019-01-17T16:28:40.080Z,99046.67
2019-01-17T16:31:09.524Z,99057.93
2019-01-17T16:33:38.867Z,99058.47
2019-01-17T16:36:08.326Z,99063.00
2019-01-17T16:38:37.727Z,99068.53
2019-01-17T16:41:07.132Z,99076.29
2019-01-17T16:43:36.588Z,99082.17
2019-01-17T16:46:06.017Z,99079.98
2019-01-17T16:48:35.430Z,99084.70
2019-01-17T16:51:04.891Z,99083.52
2019-01-17T16:53:34.289Z,99092.11
2019-01-17T16:56:03.701Z,99093.30
2019-01-17T16:58:33.129Z,99094.11
2019-01-17T17:01:02.564Z,99105.06
2019-01-17T17:03:31.955Z,99107.09
2019-01-17T17:06:01.323Z,99109.44
2019-01-17T17:08:30.800Z,99104.91
2019-01-17T17:11:00.265Z,99112.62
2019-01-17T17:13:29.647Z,99120.03
2019-01-17T17:15:59.038Z,99118.03
2019-01-17T17:18:28.554Z,99126.44
2019-01-17T17:20:57.962Z,99123.75
2019-01-17T17:23:27.371Z,99124.43
2019-01-17T17:25:56.795Z,99130.66
2019-01-17T17:28:26.181Z,99132.66
2019-01-17T17:30:55.651Z,99138.38
2019-01-17T17:33:25.087Z,99135.50
2019-01-17T17:35:54.455Z,99130.81
2019-01-17T17:38:23.837Z,99135.51
2019-01-17T17:40:53.266Z,99136.67
2019-01-17T17:43:22.753Z,99145.25
2019-01-17T17:45:52.164Z,99151.47
2019-01-17T17:48:21.760Z,99154.31
2019-01-17T17:50:51.190Z,99158.03
2019-01-17T17:53:20.671Z,99155.18
2019-01-17T17:55:50.131Z,99161.38
2019-01-17T17:58:19.766Z,99165.59
2019-01-17T18:00:53.245Z,99164.59
2019-01-17T18:03:22.674Z,99167.45
2019-01-17T18:05:52.127Z,99170.14
2019-01-17T18:08:21.524Z,99168.80
2019-01-17T18:10:50.999Z,99173.68
2019-01-17T18:13:20.812Z,99175.17
2019-01-17T18:15:50.214Z,99173.67
2019-01-17T18:18:19.750Z,99189.12
2019-01-17T18:20:49.219Z,99188.30
2019-01-17T18:23:18.623Z,99192.66
2019-01-17T18:25:48.165Z,99199.88
2019-01-17T18:28:17.640Z,99209.82
2019-01-17T18:30:47.073Z,99214.84
2019-01-17T18:33:16.445Z,99210.16
2019-01-17T18:35:46.001Z,99215.69
2019-01-17T18:38:15.379Z,99218.22
2019-01-17T18:40:44.842Z,99225.61
2019-01-17T18:43:14.307Z,99222.92
2019-01-17T18:45:43.960Z,99232.52
2019-01-17T18:48:13.352Z,99234.01
2019-01-17T18:50:43.220Z,99244.45
2019-01-17T18:53:12.663Z,99245.79
2019-01-17T18:55:42.176Z,99246.29
2019-01-17T18:58:15.568Z,99251.48
2019-01-17T19:00:42.849Z,99253.67
2019-01-17T19:03:12.260Z,99252.68
2019-01-17T19:05:41.792Z,99253.17
2019-01-17T19:08:11.220Z,99262.23
2019-01-17T19:10:40.715Z,99261.39
2019-01-17T19:13:10.241Z,99278.06
2019-01-17T19:15:39.640Z,99272.33
2019-01-17T19:18:09.109Z,99280.40
2019-01-17T19:20:38.562Z,99288.11
2019-01-17T19:23:08.022Z,99289.14
2019-01-17T19:25:37.447Z,99294.52
2019-01-17T19:28:06.903Z,99295.52
2019-01-17T19:30:36.445Z,99284.94
2019-01-17T19:33:05.953Z,99282.25
2019-01-17T19:35:35.508Z,99284.09
2019-01-17T19:38:05.008Z,99289.47
2019-01-17T19:40:34.549Z,99288.62
2019-01-17T19:43:04.131Z,99294.68
2019-01-17T19:45:33.741Z,99297.86
2019-01-17T19:48:03.776Z,99298.86
2019-01-17T19:50:35.827Z,99305.27
2019-01-17T19:53:06.617Z,99311.14
2019-01-17T19:55:36.423Z,99315.67
2019-01-17T19:58:06.222Z,99321.55
2019-01-17T20:00:35.835Z,99320.38
2019-01-17T20:03:06.113Z,99325.41
2019-01-17T20:05:35.870Z,99318.69
2019-01-17T20:08:05.456Z,99320.03
2019-01-17T20:10:37.209Z,99332.13
2019-01-17T20:13:08.145Z,99329.27
2019-01-17T20:15:37.940Z,99330.78
2019-01-17T20:18:07.826Z,99330.63
2019-01-17T20:20:37.247Z,99333.48
2019-01-17T20:23:06.808Z,99338.72
2019-01-17T20:25:36.402Z,99338.37
2019-01-17T20:28:05.866Z,99336.84
2019-01-17T20:30:36.270Z,99343.22
2019-01-17T20:33:07.693Z,99346.94
2019-01-17T20:35:37.197Z,99339.55
2019-01-17T20:38:09.002Z,99343.23
2019-01-17T20:40:38.531Z,99342.55
2019-01-17T20:43:08.005Z,99342.55
2019-01-17T20:45:37.641Z,99347.44
2019-01-17T20:48:07.266Z,99347.95
2019-01-17T20:50:36.787Z,99351.33
2019-01-17T20:53:06.333Z,99356.04
2019-01-17T20:55:35.786Z,99352.68
2019-01-17T20:58:05.867Z,99361.44
2019-01-17T21:01:03.304Z,99366.48
2019-01-17T21:03:32.765Z,99363.79
2019-01-17T21:08:30.398Z,99359.75
2019-01-17T21:10:59.806Z,99373.03
2019-01-17T21:13:29.258Z,99374.42
2019-01-17T21:16:01.311Z,99372.91
2019-01-17T21:18:29.883Z,99378.27
2019-01-17T21:20:59.276Z,99370.71
2019-01-17T21:23:28.725Z,99374.38
2019-01-17T21:25:58.188Z,99377.92
2019-01-17T21:28:27.539Z,99383.66
2019-01-17T21:30:56.990Z,99384.50
2019-01-17T21:33:26.369Z,99391.39
2019-01-17T21:35:55.764Z,99387.67
2019-01-17T21:38:25.239Z,99382.82
2019-01-17T21:40:54.660Z,99389.39
2019-01-17T21:43:24.045Z,99400.80
2019-01-17T21:45:53.532Z,99395.75
2019-01-17T21:48:22.951Z,99396.28
2019-01-17T21:50:52.340Z,99401.48
2019-01-17T21:55:22.234Z,99391.56
2019-01-17T21:57:53.136Z,99401.84
2019-01-17T22:00:24.579Z,99407.72
2019-01-17T22:02:54.019Z,99411.75
2019-01-17T22:05:23.426Z,99406.02
2019-01-17T22:07:52.885Z,99415.13
2019-01-17T22:10:23.386Z,99413.43
2019-01-17T22:12:52.712Z,99415.81
2019-01-17T22:15:23.458Z,99416.95
2019-01-17T22:17:53.087Z,99428.75
2019-01-17T22:20:22.522Z,99423.84
2019-01-17T22:22:53.117Z,99428.40
2019-01-17T22:25:23.620Z,99438.17
2019-01-17T22:27:53.063Z,99437.32
2019-01-17T22:30:24.992Z,99437.14
2019-01-17T22:32:54.415Z,99439.52
2019-01-17T22:35:23.846Z,99438.31
2019-01-17T22:37:53.283Z,99410.02
2019-01-17T22:40:22.796Z,99447.91
2019-01-17T22:42:52.185Z,99450.09
2019-01-17T22:45:24.358Z,99450.59
2019-01-17T22:47:53.769Z,99445.56
2019-01-17T22:50:23.133Z,99450.59
2019-01-17T22:52:52.822Z,99459.02
2019-01-17T22:55:23.100Z,99463.06
2019-01-17T22:57:52.469Z,99447.76
2019-01-17T23:00:52.177Z,99451.80
2019-01-17T23:03:24.294Z,99461.71
2019-01-17T23:05:53.709Z,99467.42
2019-01-17T23:08:23.106Z,99458.65
2019-01-17T23:10:52.554Z,99460.99
2019-01-17T23:13:21.939Z,99463.02
2019-01-17T23:15:51.475Z,99465.39
2019-01-17T23:18:20.817Z,99464.38
2019-01-17T23:20:50.168Z,99466.71
2019-01-17T23:23:19.559Z,99464.70
2019-01-17T23:25:48.941Z,99462.85
2019-01-17T23:28:18.283Z,99465.55
2019-01-17T23:30:47.707Z,99463.00
2019-01-17T23:33:17.045Z,99464.34
2019-01-17T23:35:46.407Z,99465.72
2019-01-17T23:38:15.872Z,99468.23
2019-01-17T23:40:45.239Z,99473.47
2019-01-17T23:43:14.629Z,99473.61
2019-01-17T23:45:44.081Z,99470.93
2019-01-17T23:48:13.499Z,99471.40
2019-01-17T23:50:42.982Z,99468.89
2019-01-17T23:53:12.365Z,99474.09
2019-01-17T23:55:41.800Z,99477.28
2019-01-17T23:58:11.254Z,99485.53
